aviador You're here:

KDMO Decoded Metar

SEDALIA in MO, USA
Report Time2017-06-29 11:53:00
UTC Time2017-06-29 12:23:16
Flight Rules vfr VFR
Wind080° at 08 kt
W.Decomp.*RWY 05: 7.1 kt HW 3.6 kt RCW
RWY 36: 1.8 kt HW 7.8 kt RCW
W.Rank080° ranks 33
Current wind is above 080° avg. (6.0)
Visibility9999 m
Phenomena:N/A
Clouds:Few 026 Hf
Overcast 036 Hf
Expected CloudBase > 1,600 ft AGL from Temp-Dew spread
Ceiling3,600 ft
Temp22°C (ISA +9)
Dew Point18°C (78% RH)
AAT21.9°C
QNH1014 hPa
Density Alt2,165 ft
Elevation899 ft
Report Wrong Elevation
Raw Report
KDMO 291153Z AUTO 08008KT 10SM FEW026 OVC036 22/18 A2993 RMK AO2
SLP127 T02220178 10250 20217 50003=

Extra information for KDMO:More info

Metar Taf Metar & Taf Last 4 Metars F.Rules Stats Wind Profile Meteogram Temp Stats Airport Information Weather charts Add Link Nearby VenuesMetar ALERT Operation Metar Decoded Social comments

AIRNAV info for KDMO